Leonardo Carvalho

Recruteur - Cruzeiro
9 Déc 2027
Jeudi
Processus

Personnalité

Adaptabilité (18) Ambition (7) Controverse (10) Loyauté (7) Pression (1) Professionnalisme (4) Sportivité (5) Tempérament (10)

Profil

Style d'entraînement Démocratique
Diplôme Continental A
Détermination 13
Gestion des joueurs 9
Motivation 7
Discipline 10
Satisfaction professionnelle
100%
Fatigue
0%
Rôle Recruteur
Salaire 95.5K p/s
Contrat 14.03.2030

Performance

Comportement Bon
Efficacité de l'entraînement
46%
Développement des joueurs
45%
Prévention des blessures
25%
Mise en place tactique
25%

Événements récents

A participé à une réunion de recrutement maintenant
A participé à une réunion de recrutement maintenant
A recommandé une cible de transfert maintenant
A participé à une réunion de recrutement maintenant
A évalué un joueur 7j
A participé à une réunion de recrutement 7j
A participé à une réunion de recrutement 7j
A évalué un joueur 7j

Suivi en cours

232
Joueur Club Statut Capacité Confiance Observé Dernière observation Dernier vote
Erick Vitória Rapport prêt 122 / 117 83% 1 07.12.2027 -
Willian José Bahia Perdu 124 / 122 83% 1 06.12.2027 Approuver
Igor Jesus Los Angeles Football Club Actif 117 / 123 40% 2 30.11.2027 -
Diogo Guzmán Montevideo City Torque Actif 119 / 120 40% 2 30.11.2027 -
Tomás Ramírez Morón Actif 112 / 118 40% 1 30.11.2027 -
Brooke Norton-Cuffy Inter Miami CF Actif 136 / 142 40% 3 29.11.2027 -
Mateo Silvetti Los Angeles Football Club Actif 123 / 127 40% 2 29.11.2027 -
Joaquín Gho Argentinos Juniors Actif 132 / 121 40% 3 29.11.2027 -
Paxten Aaronson Colorado Rapids Actif 143 / 141 40% 4 27.11.2027 -
Mauricio Amaro Atlanta United FC Actif 129 / 123 40% 4 27.11.2027 -
Breno Bidon Corinthians Actif 124 / 139 40% 3 27.11.2027 -
Samuel Gidi FC Cincinnati Actif 120 / 121 40% 1 23.11.2027 -
Lucas Assadi AIK Actif 128 / 123 40% 2 22.11.2027 -
Ralph Orquin Seattle Sounders Actif 123 / 123 40% 5 22.11.2027 -
Quinn Sullivan Philadelphia Union Actif 133 / 133 40% 2 22.11.2027 -
Edinson Largacha Millonarios Actif 114 / 122 40% 2 16.11.2027 -
Ramiro Hernandes Belgrano Actif 125 / 124 40% 3 16.11.2027 -
Armindo Sieb Los Angeles Football Club Actif 127 / 119 40% 3 13.11.2027 -
Wallace Yan Botafogo Actif 124 / 123 40% 2 13.11.2027 -
Lucas Carrizo Plaza Colonia Actif 119 / 121 40% 3 11.11.2027 -
Juan Cruz de los Santos Nacional Actif 125 / 130 40% 3 11.11.2027 -
Kota Tawaratsumida River Plate Actif 146 / 143 40% 1 07.11.2027 -
Iñaki Larthirigoyen San Telmo Actif 119 / 117 40% 3 04.11.2027 -
Oleh Ocheretko Austin FC Actif 137 / 134 40% 1 04.11.2027 -
Amin Boudri Los Angeles Football Club Actif 130 / 128 40% 1 04.11.2027 -
Telasco Segovia Inter Miami CF Actif 140 / 131 40% 2 02.11.2027 -
Ahmed Qasem Nashville SC Actif 117 / 131 40% 1 24.10.2027 -
Gustavo Neves Bragantino Actif 126 / 129 40% 2 22.10.2027 -
Nəriman Axundzadə Columbus Crew Actif 130 / 123 40% 1 22.10.2027 -
Bénie Traoré New York City Actif 127 / 131 40% 1 18.10.2027 -
Cauan Barros Vasco da Gama Actif 133 / 130 40% 1 17.10.2027 -
Ilay Feingold New England Revolution Actif 115 / 113 40% 2 16.10.2027 -
Samuel Lucero Defensa y Justicia Actif 119 / 118 40% 1 16.10.2027 -
Noel Buck San Jose Earthquakes Actif 124 / 118 40% 2 14.10.2027 -
Victor Lind Hammarby Actif 129 / 130 40% 1 10.10.2027 -
Axel Frugone Defensor Sporting Actif 114 / 122 40% 1 08.10.2027 -
Toby Collyer West Bromwich Albion Actif 133 / 134 40% 2 31.05.2027 -
Matías Soulé AS Roma Actif 156 / 146 40% 2 31.05.2027 -
Isaac Price West Bromwich Albion Actif 122 / 127 40% 1 31.05.2027 -
Mohamed-Ali Cho Hull City Actif 134 / 143 40% 4 30.05.2027 -
Joe Gelhardt Hull City Actif 135 / 141 40% 2 30.05.2027 -
Dango Ouattara Brentford Actif 155 / 138 40% 2 30.05.2027 -
Nicolas Jackson Aston Villa Actif 154 / 148 40% 2 30.05.2027 -
Carlos Alcaraz Everton Actif 149 / 139 40% 1 30.05.2027 -
Stanley Mills Oxford United Actif 119 / 132 40% 1 30.05.2027 -
Gonçalo Ramos AC Milan Actif 158 / 149 40% 1 29.05.2027 -
Thiago Brentford Actif 144 / 154 40% 1 29.05.2027 -
Nicolò Zaniolo Udinese Actif 149 / 133 40% 1 29.05.2027 -
Morgan Whittaker Middlesbrough Actif 140 / 139 40% 6 27.05.2027 -
Che Adams Torino Actif 139 / 144 40% 1 27.05.2027 -
Petar Musa Adana Demirspor Actif 134 / 126 40% 4 26.05.2027 -
Jack McGlynn Stoke City Actif 128 / 138 40% 2 26.05.2027 -
Juanlu Bournemouth Actif 144 / 143 40% 2 26.05.2027 -
Ethan Pye Stockport County Actif 115 / 115 40% 3 26.05.2027 -
Jacques Ekomié Wrexham Actif 132 / 134 40% 2 26.05.2027 -
Cher Ndour Fiorentina Actif 129 / 140 40% 1 26.05.2027 -
Malick Fofana Sunderland Actif 149 / 147 40% 1 26.05.2027 -
Tino Livramento Newcastle United Actif 155 / 167 40% 2 25.05.2027 -
Zian Flemming Ipswich Town Actif 136 / 132 40% 4 24.05.2027 -
Ismaïla Sarr Crystal Palace Actif 155 / 156 40% 2 21.05.2027 -
Oli McBurnie Hull City Actif 141 / 128 40% 2 20.05.2027 -
Tammy Abraham Aston Villa Actif 140 / 140 40% 1 20.05.2027 -
Assane Diao Lazio Actif 144 / 156 40% 2 19.05.2027 -
Matheus Araújo Oeste Actif 89 / 89 30% 1 / 1m 19.05.2027 -
Gabriel Martinelli Brighton Actif 165 / 163 40% 1 19.05.2027 -
Othmane Maamma Watford Actif 128 / 126 40% 1 19.05.2027 -
Alex Robertson Cardiff City Actif 127 / 130 40% 1 19.05.2027 -
Alex Lowry Wycombe Wanderers Actif 123 / 111 40% 1 19.05.2027 -
Moussa Dembélé CR Belouizdad Actif 129 / 133 40% 2 17.05.2027 -
Brodie Spencer Oxford United Actif 125 / 131 40% 1 17.05.2027 -
Jarrad Branthwaite Everton Actif 158 / 144 40% 1 17.05.2027 -
Donyell Malen AS Roma Actif 151 / 159 40% 1 15.05.2027 -
Bertrand Traoré Sunderland Actif 138 / 137 40% 3 14.05.2027 -
Georginio Rutter Brighton Actif 149 / 140 40% 1 14.05.2027 -
Adam Wharton Crystal Palace Actif 157 / 153 40% 2 13.05.2027 -
Yeremy Pino Crystal Palace Actif 143 / 154 40% 1 13.05.2027 -
Tom Fellows Southampton Actif 129 / 122 40% 4 12.05.2027 -
Murillo Nottingham Forest Actif 152 / 164 40% 2 12.05.2027 -
Yehor Yarmoliuk Brentford Actif 155 / 156 40% 2 12.05.2027 -
Justin Devenny Stoke City Actif 127 / 118 40% 1 12.05.2027 -
Williams Manyama SuperSport United Actif 121 / 121 40% 1 12.05.2027 -
Mohamed Belloumi Hull City Actif 144 / 138 40% 1 12.05.2027 -
Lewis Morgan SuperSport United Actif 123 / 122 40% 2 10.05.2027 -
Luis Vázquez Birmingham Actif 134 / 120 40% 4 07.05.2027 -
Ethan Williams Peterborough United Actif 113 / 117 40% 2 07.05.2027 -
Rodrigo Gomes Wolverhampton Actif 141 / 148 40% 1 07.05.2027 -
Kellen Fisher Norwich City Actif 116 / 116 40% 1 05.05.2027 -
Noah Sadiki Sunderland Actif 149 / 150 40% 1 03.05.2027 -
Callum Doyle Wrexham Actif 134 / 140 40% 2 02.05.2027 -
Habib Diarra Sunderland Actif 135 / 139 40% 4 01.05.2027 -
Louie Barry Sheffield Wednesday Actif 125 / 114 40% 1 30.04.2027 -
Richard Koné Queens Park Rangers Actif 119 / 114 40% 1 30.04.2027 -
Bosun Lawal Stoke City Actif 130 / 127 40% 1 29.04.2027 -
Femi Seriki Sheffield United Actif 126 / 125 40% 1 29.04.2027 -
Brandon Aguilera Rio Ave Actif 118 / 122 40% 5 25.04.2027 -
Taichi Fukui Arouca Actif 130 / 128 40% 4 25.04.2027 -
Lohann Doucet Vitoria Guimaraes Actif 126 / 125 40% 6 25.04.2027 -
Pau Víctor AVS Actif 134 / 148 40% 1 25.04.2027 -
Lorougnon Gohi Académico de Viseu Actif 119 / 108 40% 1 25.04.2027 -
Ollie Tanner Cardiff City Actif 110 / 126 40% 1 25.04.2027 -
Kélian Nsona Casa Pia Actif 116 / 124 40% 4 22.04.2027 -
Yousef Salech Cardiff City Actif 129 / 114 40% 2 22.04.2027 -
Mateo Pellegrino Fiorentina Actif 136 / 133 40% 1 22.04.2027 -
Zeidane Inoussa Swansea City Actif 121 / 131 40% 1 22.04.2027 -
Mandla Erasmus SuperSport United Actif 117 / 129 40% 5 21.04.2027 -
Sidny Lopes Cabral Trabzonspor Actif 138 / 123 40% 1 21.04.2027 -
Rodrigo Pinheiro Famalicao Actif 130 / 119 40% 2 20.04.2027 -
Fotis Ioannidis Rio Ave Actif 145 / 133 40% 2 18.04.2027 -
Juninho Pumas UNAM Actif 129 / 129 40% 2 18.04.2027 -
Hwang Hee-Chan Wolverhampton Actif 134 / 129 40% 2 18.04.2027 -
Kevin Fulham Actif 145 / 157 40% 1 18.04.2027 -
Luís Guilherme Sporting CP Actif 134 / 133 40% 2 15.04.2027 -
Dominic Calvert-Lewin Leeds United Actif 143 / 145 40% 3 14.04.2027 -
Mario Dorgeles Braga Actif 140 / 124 40% 4 13.04.2027 -
Hugo Cuypers Monterrey Actif 132 / 137 40% 3 13.04.2027 -
Teden Mengi Luton Town Actif 122 / 113 40% 3 12.04.2027 -
Razvan Balasa Crvena Zvezda Actif 141 / 134 40% 1 09.04.2027 -
Gabriel Veron Porto Actif 123 / 126 40% 7 08.04.2027 -
Edoardo Bove Watford Actif 126 / 121 40% 2 05.04.2027 -
João Simões Sporting CP Actif 128 / 145 40% 1 05.04.2027 -
Charlie Webster Burton Albion Actif 118 / 111 40% 1 05.04.2027 -
Gianluca Prestianni Benfica Actif 133 / 148 40% 4 04.04.2027 -
Cian Ashford Cardiff City Actif 124 / 132 40% 3 04.04.2027 -
Heorhii Sudakov Benfica Actif 152 / 151 40% 4 04.04.2027 -
Iván Fresneda Sporting CP Actif 139 / 136 40% 6 03.04.2027 -
Tidjany Touré Gil Vicente Actif 119 / 109 40% 2 03.04.2027 -
Josh Doig Sassuolo Actif 128 / 146 40% 1 03.04.2027 -
Joaquín Panichelli Le Havre AC Actif 146 / 147 40% 1 02.04.2027 -
Salvador Blopá Casa Pia Actif 119 / 121 40% 2 01.04.2027 -
Shea Charles Southampton Actif 138 / 147 40% 3 01.04.2027 -
Kristoffer Lund Birmingham Actif 132 / 121 40% 1 01.04.2027 -
Ansu Fati Monaco Actif 135 / 136 40% 3 29.03.2027 -
Kwadwo Baah Watford Actif 128 / 118 40% 1 26.03.2027 -
Lee Hyun-Ju Arouca Actif 121 / 126 40% 1 25.03.2027 -
Andrea Pinamonti Lazio Actif 147 / 144 40% 1 23.03.2027 -
Alberto Costa Porto Actif 153 / 150 40% 5 22.03.2027 -
Martín Tejón Maritimo Actif 114 / 127 40% 3 22.03.2027 -
Lovro Zvonarek Estrela da Amadora Actif 122 / 137 40% 1 19.03.2027 -
Tamás Szűcs Famalicao Actif 115 / 124 40% 1 19.03.2027 -
Zeki Amdouni Burnley Actif 136 / 122 40% 1 17.03.2027 -
Aune Heggebø West Bromwich Albion Actif 122 / 136 40% 1 17.03.2027 -
Pedro Bondo Famalicao Actif 112 / 119 40% 2 15.03.2027 -
Mduduzi Shabalala Kaizer Chiefs Actif 113 / 115 40% 2 15.03.2027 -
Félix Lemaréchal Club Brugge Actif 136 / 147 40% 1 12.03.2027 -
Javier Mena Portimonense Actif 120 / 112 40% 1 12.03.2027 -
Pablo Monroy Pumas UNAM Actif 114 / 133 40% 1 12.03.2027 -
Tony Strata Vitoria Guimaraes Actif 119 / 123 40% 2 05.03.2027 -
Zeno Debast Sporting CP Actif 146 / 131 40% 1 05.03.2027 -
Emi Rodriguez Leon Actif 117 / 125 40% 2 02.03.2027 -
Mateja Stjepanović Moreirense Actif 113 / 123 40% 3 01.03.2027 -
Gonçalo Nogueira Vitoria Guimaraes Actif 114 / 124 40% 2 01.03.2027 -
Tomás Araújo Benfica Actif 156 / 151 40% 3 28.02.2027 -
Marvin Elimbi Gil Vicente Actif 117 / 128 40% 3 26.02.2027 -
Pedro Vite Pumas UNAM Actif 124 / 124 40% 1 26.02.2027 -
Ilay Camara Anderlecht Actif 126 / 120 40% 1 21.02.2027 -
Kevin Vazquez Cruz Azul Actif 135 / 140 40% 1 21.02.2027 -
Beni Mukendi Vitoria Guimaraes Actif 131 / 121 40% 2 20.02.2027 -
Marlon Gomes Shakhtar Actif 138 / 143 40% 1 20.02.2027 -
Fidel Ambríz Monterrey Actif 137 / 121 40% 1 19.02.2027 -
Hugo Pérez Torreense Actif 121 / 110 40% 1 16.02.2027 -
Bright Arrey-Mbi Braga Actif 127 / 131 40% 3 12.02.2027 -
Omar Campos Cruz Azul Actif 131 / 113 40% 1 06.02.2027 -
Jonás Luna Santa Clara Actif 121 / 128 40% 3 28.11.2026 -
Ezekiel Kwame Alladoh Philadelphia Union Actif 113 / 117 40% 2 28.11.2026 -
Mathis Jangeal Famalicao Actif 96 / 100 40% 1 28.11.2026 -
Roberto Fernández Braga Actif 136 / 152 40% 3 27.11.2026 -
Andrés Gómez Vasco da Gama Actif 136 / 140 40% 2 26.11.2026 -
Lucas Piton Vasco da Gama Actif 135 / 138 40% 3 26.11.2026 -
Jordan Beyer Burnley Actif 142 / 122 40% 2 26.11.2026 -
Toni Tamarit Alverca Actif 108 / 118 40% 3 21.11.2026 -
Samuel Lino Flamengo Actif 144 / 146 40% 3 21.11.2026 -
Jack Rudoni Coventry City Actif 125 / 139 40% 1 21.11.2026 -
Richard Ledezma Guadalajara Actif 142 / 133 40% 1 20.11.2026 -
Erick Sánchez OGC Nice Actif 132 / 130 40% 1 17.11.2026 -
Alan Varela Porto Actif 150 / 148 40% 3 16.11.2026 -
Sikou Niakaté Braga Actif 131 / 126 40% 5 16.11.2026 -
Eduardo Quaresma Sporting CP Actif 135 / 138 40% 2 16.11.2026 -
Rocco Vata Watford Actif 124 / 136 40% 3 15.11.2026 -
Rayan Bournemouth Actif 131 / 130 40% 1 15.11.2026 -
Sergi Altimira Sporting CP Actif 133 / 138 40% 4 14.11.2026 -
Nicolás Fernández Mercau Shakhtar Actif 138 / 132 40% 1 14.11.2026 -
Mika Mármol Feyenoord Actif 142 / 147 40% 1 11.11.2026 -
Stefanos Tzimas Brighton Actif 136 / 151 40% 3 10.11.2026 -
Hojjat Ahmadi Esteghlal Khuzestan Actif 90 / 112 40% 1 10.11.2026 -
Iwan Morgan Grimsby Town Actif 100 / 104 40% 4 08.11.2026 -
Santiago Sosa Vasco da Gama Actif 133 / 130 40% 1 07.11.2026 -
Victor Froholdt Porto Actif 151 / 151 40% 3 05.11.2026 -
Richard Gonzalez Chamois Niortais Actif 122 / 128 40% 1 05.11.2026 -
Juan Ignacio Nardoni Grêmio Actif 133 / 127 40% 1 04.11.2026 -
Markus Jensen Nacional Actif 97 / 107 40% 3 01.11.2026 -
Roméo Beney Famalicao Actif 116 / 104 40% 3 01.11.2026 -
Kauã Elias Anderlecht Actif 123 / 144 40% 1 01.11.2026 -
Caio Alexandre Bahia Actif 135 / 131 40% 2 30.10.2026 -
Víctor Gómez Braga Actif 139 / 131 40% 4 30.10.2026 -
Imrân Louza Watford Actif 126 / 131 40% 1 30.10.2026 -
Cristian Medina Botafogo Actif 124 / 127 40% 1 29.10.2026 -
Leandro Barreiro Benfica Actif 141 / 145 40% 6 24.10.2026 -
Eric Ramires Bragantino Actif 129 / 132 40% 2 24.10.2026 -
Geny Sporting CP Actif 144 / 139 40% 2 24.10.2026 -
Rafik Guitane Estoril Praia Actif 126 / 116 40% 2 21.10.2026 -
Alexandro Bernabei Internacional Actif 126 / 129 40% 1 18.10.2026 -
Tiago Palacios Estudiantes Actif 127 / 136 40% 1 14.10.2026 -
Alan Lescano Argentinos Juniors Actif 134 / 130 40% 1 14.10.2026 -
Archie Goodwin Charlotte Football Club Actif 101 / 106 40% 2 12.10.2026 -
Rodrigo Zalazar Sporting CP Actif 149 / 161 40% 1 12.10.2026 -
Leif Davis Ipswich Town Actif 138 / 133 40% 2 10.10.2026 -
Paulinho Palmeiras Actif 137 / 147 40% 1 08.10.2026 -
Gonçalo Inácio Sporting CP Actif 146 / 151 40% 1 07.10.2026 Plus d'infos
Leo Castledine Middlesbrough Actif 130 / 132 40% 4 04.10.2026 -
Jordan Holsgrove Estoril Praia Actif 127 / 136 40% 1 04.10.2026 -
Gabriel Silva Sporting CP Actif 97 / 105 40% 1 04.10.2026 -
Dinis Pinto Moreirense Actif 131 / 126 40% 1 02.10.2026 -
Erick Pulga Bahia Actif 126 / 124 40% 1 02.10.2026 -
Santi García Gil Vicente Actif 133 / 128 40% 1 29.09.2026 -
Inti López River Plate Actif 96 / 101 40% 1 24.09.2026 -
Matías Fernández-Pardo Newcastle United Actif 140 / 139 40% 1 22.09.2026 -
Ilyas Ansah Hull City Actif 128 / 124 40% 1 22.09.2026 -
Danilo Botafogo Actif 137 / 141 40% 1 22.09.2026 -
Emerson Royal Flamengo Actif 137 / 138 40% 1 18.09.2026 -
Gabriel Gudmundsson Leeds United Actif 141 / 128 40% 1 16.09.2026 -
Gustaf Lagerbielke Braga Actif 133 / 146 40% 1 12.09.2026 -
Bobby Thomas Coventry City Actif 125 / 122 40% 1 12.09.2026 -
Henry Mosquera Bragantino Actif 125 / 134 40% 1 11.09.2026 -
Ramón Juárez Club America Actif 139 / 132 40% 1 07.09.2026 -
Agustín Ruberto River Plate Actif 116 / 125 40% 3 05.09.2026 -
Léo Jacó Santa Clara Actif 92 / 88 40% 2 25.08.2026 -
Ryan Oné Sheffield United Actif 99 / 120 40% 1 16.08.2026 -
André Luís Mirassol Actif 123 / 123 30% 1 / 1m 12.08.2026 -
Mateus Mané Manchester United Actif 134 / 134 40% 1 12.08.2026 -
Jovan Milošević Braga Actif 112 / 133 40% 1 08.08.2026 -
Dawda Camara Alverca Actif 108 / 130 40% 1 01.08.2026 -
Jonathan Calleri Sport Recife Actif 141 / 140 40% 1 01.08.2026 Plus d'infos